Latest Coastal Weather Observations for Eucla

IDW60701

Issued at 4:52 am WST Monday 20 April 2015 (issued every 10 minutes, with the page automatically refreshed every 10 minutes)

About coastal observations | Map of coastal stations | Coastal observations for WA | Marine services | Other Formats
Station Details ID: 011003 Name: EUCLA Lat: -31.68 Lon: 128.90 Height: 93.1 m
Data from the previous 72 hours. | See also: Recent months at Eucla
Date/Time
WST
Temp

°C
Wind Pressure Rain
since 9am
mm
Weather Cloud Vis
km
Sea
Height
m
Swell
Dir
 
Speed
knots
Gust
knots
hPa Trend Height
m
Period
s
Dir
20/04:30am 10.6 NE 9 14 1034.3 - 0.0 - - - - - - -
20/04:00am 10.2 NE 8 12 1034.1 - 0.0 - - - - - - -
20/03:30am 10.1 NE 7 9 1034.1 - 0.0 - - - - - - -
20/03:00am 10.3 NE 7 9 1034.1 - 0.0 - - - - - - -
20/02:30am 10.8 NE 7 9 1033.9 - 0.0 - - - - - - -
20/02:00am 11.3 NE 7 9 1034.0 - 0.0 - - - - - - -
20/01:30am 11.8 NE 7 9 1034.2 - 0.0 - - - - - - -
20/01:00am 12.2 NE 7 10 1034.3 - 0.0 - - - - - - -
20/12:30am 12.8 NE 7 9 1034.3 - 0.0 - - - - - - -
20/12:00am 13.3 NE 7 9 1034.3 - 0.0 - - - - - - -
 
Date/Time
WST
Temp

°C
Wind Pressure Rain
since 9am
mm
Weather Cloud Vis
km
Sea
Height
m
Swell
Dir
 
Speed
knots
Gust
knots
hPa Trend Height
m
Period
s
Dir
19/11:30pm 13.5 NE 7 9 1034.4 - 0.0 - - - - - - -
19/11:00pm 14.0 ENE 8 12 1034.5 - 0.0 - - - - - - -
19/10:30pm 14.0 NE 7 10 1034.6 - 0.0 - - - - - - -
19/10:00pm 14.1 NE 6 8 1035.0 - 0.0 - - - - - - -
19/09:30pm 14.8 ENE 6 10 1035.1 - 0.0 - - - - - - -
19/09:00pm 15.6 ENE 5 7 1035.2 - 0.0 - - - - - - -
19/08:30pm 15.5 ENE 8 13 1035.1 - 0.0 - - - - - - -
19/08:00pm 15.6 E 7 10 1034.8 - 0.0 - - - - - - -
19/07:30pm 15.4 E 7 14 1034.6 - 0.0 - - - - - - -
19/07:00pm 15.8 E 8 13 1034.4 - 0.0 - - - - - - -
19/06:30pm 15.3 ENE 6 8 1034.2 - 0.0 - - - - - - -
19/06:00pm 15.5 E 7 10 1034.0 - 0.0 - - - - - - -
19/05:30pm 16.1 E 8 13 1033.5 - 0.0 - - - - - - -
19/05:00pm 16.4 E 9 13 1033.2 - 0.0 - - - - - - -
19/04:30pm 16.7 E 10 15 1032.8 - 0.0 - - - - - - -
19/04:00pm 17.5 ESE 11 17 1032.3 - 0.0 - - - - - - -
19/03:30pm 18.0 ESE 11 17 1032.3 - 0.0 - - - - - - -
19/03:00pm 18.7 ESE 12 20 1032.3 - 0.0 Haze Mostly clear 25 - - - -
19/02:30pm 18.4 ESE 12 20 1032.3 - 0.0 - - - - - - -
19/02:00pm 18.6 ESE 13 19 1032.3 - 0.0 - - - - - - -
19/01:30pm 19.0 ESE 12 18 1032.3 - 0.0 - - - - - - -
19/01:00pm 18.4 ESE 13 19 1032.5 - 0.0 - - - - - - -
19/12:30pm 18.7 ESE 13 22 1032.5 - 0.0 - - - - - - -
19/12:00pm 18.5 E 13 21 1032.7 - 0.0 - - - - - - -
19/11:30am 18.2 ESE 12 19 1033.1 - 0.0 - - - - - - -
19/11:00am 17.5 E 12 19 1033.4 - 0.0 - - - - - - -
19/10:30am 18.3 E 13 21 1033.4 - 0.0 - - - - - - -
19/10:00am 17.5 ESE 12 20 1033.6 - 0.0 - - - - - - -
19/09:30am 17.9 ESE 11 17 1033.6 - 0.0 - - - - - - -
19/09:00am 17.5 ESE 11 18 1033.4 - 1.6 Drizzle Mostly cloudy 25 - - - -
19/08:30am 18.3 ESE 13 20 1033.4 - 1.6 - - - - - - -
19/08:00am 16.9 E 11 17 1033.1 - 1.6 - - - - - - -
19/07:30am 17.9 E 9 15 1032.8 - 1.6 - - - - - - -
19/07:00am 16.8 ESE 10 16 1032.1 - 1.6 - - - - - - -
19/06:30am 15.9 ESE 10 15 1031.6 - 1.6 - - - - - - -
19/06:00am 15.9 ESE 9 15 1031.2 - 1.6 - - - - - - -
19/05:30am 15.7 ESE 10 17 1030.8 - 1.6 - - - - - - -
19/05:00am 15.9 ESE 10 19 1030.8 - 1.6 - - - - - - -
19/04:30am 16.0 ESE 9 15 1030.4 - 1.6 - - - - - - -
19/04:00am 15.7 ESE 9 15 1030.0 - 1.6 - - - - - - -
19/03:30am 16.0 ESE 9 14 1029.8 - 1.6 - - - - - - -
19/03:00am 15.6 ESE 6 9 1029.5 - 1.6 - - - - - - -
19/02:30am 15.3 SE 7 9 1029.4 - 1.6 - - - - - - -
19/02:00am 15.4 SE 7 11 1029.3 - 1.6 - - - - - - -
19/01:30am 14.7 SE 7 9 1029.4 - 1.6 - - - - - - -
19/01:00am 15.0 SE 8 11 1029.8 - 1.6 - - - - - - -
19/12:30am 15.0 SE 8 14 1029.8 - 1.6 - - - - - - -
19/12:00am 15.4 SE 9 17 1029.6 - 1.6 - - - - - - -
 
Date/Time
WST
Temp

°C
Wind Pressure Rain
since 9am
mm
Weather Cloud Vis
km
Sea
Height
m
Swell
Dir
 
Speed
knots
Gust
knots
hPa Trend Height
m
Period
s
Dir
18/11:30pm 14.8 SE 8 13 1029.5 - 1.6 - - - - - - -
18/11:00pm 15.2 SE 9 16 1029.1 - 1.6 - - - - - - -
18/10:30pm 15.3 SSE 9 16 1029.3 - 1.6 - - - - - - -
18/10:00pm 15.8 SSE 11 17 1029.3 - 1.6 - - - - - - -
18/09:30pm 15.7 SSE 11 17 1029.2 - 1.6 - - - - - - -
18/09:00pm 15.7 SE 12 18 1029.1 - 1.6 Recent precip. - - - - - -
18/08:30pm 15.3 SSE 9 14 1029.0 - 1.6 - - - - - - -
18/08:00pm 15.4 SSE 11 19 1028.7 - 1.4 - - - - - - -
18/07:30pm 15.5 SSE 11 18 1028.2 - 1.4 - - - - - - -
18/07:00pm 15.9 SSE 10 16 1027.8 - 1.4 - - - - - - -
18/06:30pm 15.9 SSE 12 19 1027.3 - 1.4 - - - - - - -
18/06:00pm 15.8 SSE 9 17 1026.7 - 1.4 - - - - - - -
18/05:30pm 15.5 SSE 12 18 1026.3 - 1.4 - - - - - - -
18/05:00pm 15.8 SE 11 17 1025.8 - 1.4 - - - - - - -
18/04:30pm 16.2 SSE 12 17 1025.3 - 0.0 - - - - - - -
18/04:00pm 16.7 SW 6 9 1024.7 - 0.0 - - - - - - -
18/03:30pm 18.5 SSW 9 15 1024.3 - 0.0 - - - - - - -
18/03:00pm 19.5 SSW 10 16 1024.2 - 0.0 Haze Mostly cloudy 25 - - - -
18/02:30pm 20.2 SSW 10 14 1023.9 - 0.0 - - - - - - -
18/02:00pm 20.4 SSW 9 17 1023.8 - 0.0 - - - - - - -
18/01:30pm 21.4 SW 6 10 1023.3 - 0.0 - - - - - - -
18/01:00pm 20.9 SSW 9 14 1023.5 - 0.0 - - - - - - -
18/12:30pm 21.3 SW 7 14 1023.5 - 0.0 - - - - - - -
18/12:00pm 20.8 S 8 12 1023.7 - 0.0 - - - - - - -
18/11:30am 20.5 SSW 9 14 1023.9 - 0.0 - - - - - - -
18/11:00am 21.1 SW 8 15 1024.1 - 0.0 - - - - - - -
18/10:30am 20.9 WSW 9 13 1024.3 - 0.0 - - - - - - -
18/10:00am 20.7 W 9 13 1024.5 - 0.0 - - - - - - -
18/09:30am 19.6 W 7 12 1024.4 - 0.0 - - - - - - -
18/09:00am 18.6 WNW 8 14 1024.5 - 0.0 Fine Mostly clear 40 - - - -
18/08:30am 17.7 WNW 7 10 1024.4 - 0.0 - - - - - - -
18/08:00am 16.2 NW 7 9 1024.4 - 0.0 - - - - - - -
18/07:30am 14.7 NW 6 9 1024.1 - 0.0 - - - - - - -
18/07:00am 12.8 NW 7 9 1023.7 - 0.0 - - - - - - -
18/06:30am 11.3 NW 6 8 1023.3 - 0.0 - - - - - - -
18/06:00am 9.3 NNW 6 8 1022.9 - 0.0 - - - - - - -
18/05:30am 8.9 NNW 7 9 1022.4 - 0.0 - - - - - - -
18/05:00am 9.0 NNW 8 9 1021.9 - 0.0 - - - - - - -
18/04:30am 8.2 NNW 7 8 1021.7 - 0.0 - - - - - - -
18/04:00am 8.1 NNW 7 8 1021.4 - 0.0 - - - - - - -
18/03:30am 8.4 NNW 7 8 1021.2 - 0.0 - - - - - - -
18/03:00am 8.5 NNW 7 8 1021.2 - 0.0 - - - - - - -
18/02:30am 8.6 NNW 6 7 1021.2 - 0.0 - - - - - - -
18/02:00am 8.5 NNW 6 7 1021.4 - 0.0 - - - - - - -
18/01:30am 8.7 NNW 6 7 1021.6 - 0.0 - - - - - - -
18/01:00am 9.0 NNW 6 6 1021.9 - 0.0 - - - - - - -
18/12:30am 9.2 NNW 6 6 1021.9 - 0.0 - - - - - - -
18/12:00am 9.4 NNW 6 7 1022.0 - 0.0 - - - - - - -
 
Date/Time
WST
Temp

°C
Wind Pressure Rain
since 9am
mm
Weather Cloud Vis
km
Sea
Height
m
Swell
Dir
 
Speed
knots
Gust
knots
hPa Trend Height
m
Period
s
Dir
17/11:30pm 9.0 NNW 6 6 1021.9 - 0.0 - - - - - - -
17/11:00pm 9.3 NNW 5 5 1022.0 - 0.0 - - - - - - -
17/10:30pm 8.8 CALM 0 0 1022.0 - 0.0 - - - - - - -
17/10:00pm 9.2 CALM 0 0 1022.1 - 0.0 - - - - - - -
17/09:30pm 9.0 CALM 0 0 1022.5 - 0.0 - - - - - - -
17/09:00pm 9.7 ESE 3 4 1022.5 - 0.0 - - - - - - -
17/08:30pm 10.7 SE 3 4 1022.5 - 0.0 - - - - - - -
17/08:00pm 12.7 SSE 4 5 1022.6 - 0.0 - - - - - - -
17/07:30pm 12.8 S 4 5 1022.8 - 0.0 - - - - - - -
17/07:00pm 13.2 SSW 4 6 1022.8 - 0.0 - - - - - - -
17/06:30pm 13.2 SSW 5 6 1022.7 - 0.0 - - - - - - -
17/06:00pm 13.8 SSW 4 7 1022.6 - 0.0 - - - - - - -
17/05:30pm 14.6 SSW 5 7 1022.3 - 0.0 - - - - - - -
17/05:00pm 15.4 S 5 7 1021.9 - 0.0 - - - - - - -
17/04:30pm 16.4 S 6 8 1021.5 - 0.0 - - - - - - -
17/04:00pm 17.2 S 7 9 1021.5 - 0.0 - - - - - - -
17/03:30pm 17.8 S 7 11 1021.7 - 0.0 - - - - - - -
17/03:00pm 18.2 S 8 12 1021.8 - 0.0 Fine Partly cloudy 40 - - - -
17/02:30pm 18.4 S 7 11 1021.9 - 0.0 - - - - - - -
17/02:00pm 18.3 S 8 13 1021.9 - 0.0 - - - - - - -
17/01:30pm 18.6 SSW 8 13 1022.1 - 0.0 - - - - - - -
17/01:00pm 18.7 S 9 12 1022.3 - 0.0 - - - - - - -
17/12:30pm 18.4 S 9 13 1022.5 - 0.0 - - - - - - -
17/12:00pm 18.0 SSW 7 10 1022.8 - 0.0 - - - - - - -
17/11:30am 18.0 SSW 7 14 1023.2 - 0.0 - - - - - - -
17/11:00am 19.2 SSW 7 11 1023.5 - 0.0 - - - - - - -
17/10:30am 18.6 SSW 8 14 1023.7 - 0.0 - - - - - - -
17/10:00am 19.4 S 7 10 1023.9 - 0.0 - - - - - - -
17/09:30am 18.3 S 8 14 1024.2 - 0.0 - - - - - - -
17/09:00am 18.1 SSE 9 13 1024.4 - 19.2 Fine Mostly cloudy 40 - - - -
17/08:30am 17.7 S 8 13 1024.6 - 19.2 - - - - - - -
17/08:00am 18.0 SSE 8 12 1024.6 - 19.2 - - - - - - -
17/07:30am 17.8 S 8 13 1024.7 - 19.2 - - - - - - -
17/07:00am 16.8 SSE 7 12 1024.8 - 19.2 - - - - - - -
17/06:30am 16.5 SSE 7 11 1024.7 - 19.2 - - - - - - -
17/06:00am 15.8 SSE 5 8 1024.6 - 19.2 - - - - - - -
17/05:30am 16.1 SSE 6 10 1024.5 - 19.2 - - - - - - -
17/05:00am 16.0 SSE 6 8 1024.4 - 19.2 - - - - - - -

Other Formats:

Comma delimited format used in spreadsheet applications
http://www.bom.gov.au/fwo/IDW60701/IDW60701.94647.axf

JavaScript Object Notation format (JSON) in row-major order
http://www.bom.gov.au/fwo/IDW60701/IDW60701.94647.json